KBIS/BIS METAR and TAF weather

Enter ICAO airport designator
Station Type Date Time Source
KBIS METAR 2019/10/16 18:52 UTC NOAA

KBIS 161852Z 15013KT 10SM SCT120 07/M01 A3000 RMK AO2 PRESFR SLP174 T00671006


Station Type Date Time Source
KBIS Decoded METAR 2019/10/16 18:52 UTC NOAA

BISMARCK MUNICIPAL AIRPORT, ND, United States (KBIS) 46-47N 100-45W 503M
Oct 16, 2019 - 02:52 PM EDT / 2019.10.16 1852 UTC
Wind: from the SSE (150 degrees) at 15 MPH (13 KT):0
Visibility: 10 mile(s):0
Sky conditions: partly cloudy
Temperature: 44.1 F (6.7 C)
Dew Point: 30.9 F (-0.6 C)
Relative Humidity: 59%
Pressure (altimeter): 30 in. Hg (1015 hPa)
Pressure tendency: falling rapidly
ob: KBIS 161852Z 15013KT 10SM SCT120 07/M01 A3000 RMK AO2 PRESFR SLP174 T00671006
cycle: 19

Station Type Date Time Source
KBIS TAF 2019/10/16 18:27 UTC NOAA

TAF KBIS 161725Z 1618/1718 16011KT P6SM BKN110 OVC200
FM162000 17011KT P6SM SCT200
FM170000 15006KT P6SM FEW250
FM170800 06003KT P6SM SCT250
FM171600 15007KT P6SM SCT250

Example: see airport list